sensor_id;sensor_type;location;lat;lon;timestamp;pressure;altitude;pressure_sealevel;temperature;humidity
40502;BME280;29631;49.168;9.848;2023-06-26T00:01:27;96613.38;;;24.32;72.37
40502;BME280;29631;49.168;9.848;2023-06-26T00:03:55;96604.84;;;24.25;72.64
40502;BME280;29631;49.168;9.848;2023-06-26T00:06:21;96612.66;;;24.26;72.45
40502;BME280;29631;49.168;9.848;2023-06-26T00:08:50;96604.34;;;24.23;72.39
40502;BME280;29631;49.168;9.848;2023-06-26T00:11:16;96626.34;;;24.30;72.69
40502;BME280;29631;49.168;9.848;2023-06-26T00:13:42;96589.91;;;24.14;72.28
40502;BME280;29631;49.168;9.848;2023-06-26T00:16:08;96619.94;;;24.26;72.28
40502;BME280;29631;49.168;9.848;2023-06-26T00:18:33;96623.72;;;24.25;72.66
40502;BME280;29631;49.168;9.848;2023-06-26T00:20:59;96614.09;;;24.19;72.27
40502;BME280;29631;49.168;9.848;2023-06-26T00:23:25;96638.72;;;24.31;72.57
40502;BME280;29631;49.168;9.848;2023-06-26T00:25:50;96612.50;;;24.18;72.65
40502;BME280;29631;49.168;9.848;2023-06-26T00:28:16;96619.50;;;24.19;72.24
40502;BME280;29631;49.168;9.848;2023-06-26T00:30:42;96621.88;;;24.20;72.14
40502;BME280;29631;49.168;9.848;2023-06-26T00:33:08;96633.41;;;24.26;72.64
40502;BME280;29631;49.168;9.848;2023-06-26T00:35:33;96621.09;;;24.20;72.67
40502;BME280;29631;49.168;9.848;2023-06-26T00:38:01;96623.88;;;24.15;72.65
40502;BME280;29631;49.168;9.848;2023-06-26T00:40:27;96605.66;;;24.07;72.90
40502;BME280;29631;49.168;9.848;2023-06-26T00:42:53;96629.81;;;24.12;72.91
40502;BME280;29631;49.168;9.848;2023-06-26T00:45:19;96621.28;;;24.05;72.95
40502;BME280;29631;49.168;9.848;2023-06-26T00:47:45;96637.41;;;24.10;73.07
40502;BME280;29631;49.168;9.848;2023-06-26T00:50:11;96621.97;;;23.97;72.86
40502;BME280;29631;49.168;9.848;2023-06-26T00:52:37;96633.19;;;24.04;72.93
40502;BME280;29631;49.168;9.848;2023-06-26T00:55:04;96626.31;;;23.93;73.35
40502;BME280;29631;49.168;9.848;2023-06-26T00:57:30;96638.91;;;23.98;73.33
40502;BME280;29631;49.168;9.848;2023-06-26T00:59:57;96628.50;;;23.91;73.24
40502;BME280;29631;49.168;9.848;2023-06-26T01:02:23;96630.09;;;23.92;73.33
40502;BME280;29631;49.168;9.848;2023-06-26T01:04:52;96632.22;;;23.95;72.89
40502;BME280;29631;49.168;9.848;2023-06-26T01:07:19;96627.47;;;23.87;73.46
40502;BME280;29631;49.168;9.848;2023-06-26T01:09:47;96632.84;;;23.87;73.44
40502;BME280;29631;49.168;9.848;2023-06-26T01:12:14;96625.94;;;23.81;73.04
40502;BME280;29631;49.168;9.848;2023-06-26T01:14:40;96630.78;;;23.79;73.08
40502;BME280;29631;49.168;9.848;2023-06-26T01:17:06;96627.00;;;23.80;73.26
40502;BME280;29631;49.168;9.848;2023-06-26T01:19:33;96612.56;;;23.71;73.23
40502;BME280;29631;49.168;9.848;2023-06-26T01:22:16;96619.78;;;23.76;73.59
40502;BME280;29631;49.168;9.848;2023-06-26T01:27:50;96606.72;;;23.64;73.69
40502;BME280;29631;49.168;9.848;2023-06-26T01:30:18;96622.81;;;23.69;73.71
40502;BME280;29631;49.168;9.848;2023-06-26T01:32:45;96607.88;;;23.58;73.15
40502;BME280;29631;49.168;9.848;2023-06-26T01:35:12;96589.06;;;23.53;73.27
40502;BME280;29631;49.168;9.848;2023-06-26T01:37:39;96589.06;;;23.53;73.30
40502;BME280;29631;49.168;9.848;2023-06-26T01:40:05;96572.47;;;23.46;73.22
40502;BME280;29631;49.168;9.848;2023-06-26T01:42:34;96582.91;;;23.53;73.04
40502;BME280;29631;49.168;9.848;2023-06-26T01:45:26;96601.13;;;23.61;73.33
40502;BME280;29631;49.168;9.848;2023-06-26T01:47:52;96581.06;;;23.48;73.26
40502;BME280;29631;49.168;9.848;2023-06-26T01:50:26;96599.84;;;23.53;73.62
40502;BME280;29631;49.168;9.848;2023-06-26T01:53:25;96594.69;;;23.57;73.04
40502;BME280;29631;49.168;9.848;2023-06-26T01:55:56;96599.50;;;23.60;73.19
40502;BME280;29631;49.168;9.848;2023-06-26T01:58:25;96593.31;;;23.59;72.85
40502;BME280;29631;49.168;9.848;2023-06-26T02:00:51;96576.25;;;23.45;72.77
40502;BME280;29631;49.168;9.848;2023-06-26T02:03:17;96605.91;;;23.64;73.38
40502;BME280;29631;49.168;9.848;2023-06-26T02:05:43;96584.72;;;23.57;73.16
40502;BME280;29631;49.168;9.848;2023-06-26T02:08:10;96575.66;;;23.48;72.88
40502;BME280;29631;49.168;9.848;2023-06-26T02:10:36;96568.44;;;23.44;72.66
40502;BME280;29631;49.168;9.848;2023-06-26T02:13:02;96604.03;;;23.64;72.85
40502;BME280;29631;49.168;9.848;2023-06-26T02:15:27;96583.22;;;23.46;73.14
40502;BME280;29631;49.168;9.848;2023-06-26T02:17:53;96593.88;;;23.56;73.24
40502;BME280;29631;49.168;9.848;2023-06-26T02:20:19;96597.66;;;23.55;72.80
40502;BME280;29631;49.168;9.848;2023-06-26T02:22:44;96600.28;;;23.60;72.69
40502;BME280;29631;49.168;9.848;2023-06-26T02:25:10;96591.75;;;23.53;73.10
40502;BME280;29631;49.168;9.848;2023-06-26T02:27:38;96588.56;;;23.51;73.13
40502;BME280;29631;49.168;9.848;2023-06-26T02:30:04;96593.97;;;23.51;73.16
40502;BME280;29631;49.168;9.848;2023-06-26T02:32:30;96586.97;;;23.50;73.40
40502;BME280;29631;49.168;9.848;2023-06-26T02:34:56;96596.59;;;23.56;72.85
40502;BME280;29631;49.168;9.848;2023-06-26T02:37:21;96592.56;;;23.54;72.84
40502;BME280;29631;49.168;9.848;2023-06-26T02:39:47;96588.13;;;23.44;72.89
40502;BME280;29631;49.168;9.848;2023-06-26T02:42:13;96593.44;;;23.49;73.24
40502;BME280;29631;49.168;9.848;2023-06-26T02:44:39;96569.91;;;23.37;73.33
40502;BME280;29631;49.168;9.848;2023-06-26T02:47:05;96582.78;;;23.40;73.35
40502;BME280;29631;49.168;9.848;2023-06-26T02:49:30;96590.81;;;23.44;73.52
40502;BME280;29631;49.168;9.848;2023-06-26T02:51:56;96596.19;;;23.44;73.44
40502;BME280;29631;49.168;9.848;2023-06-26T02:54:22;96584.72;;;23.34;73.45
40502;BME280;29631;49.168;9.848;2023-06-26T02:56:47;96578.53;;;23.34;73.25
40502;BME280;29631;49.168;9.848;2023-06-26T02:59:14;96589.25;;;23.39;73.72
40502;BME280;29631;49.168;9.848;2023-06-26T03:01:39;96593.78;;;23.43;73.15
40502;BME280;29631;49.168;9.848;2023-06-26T03:04:05;96579.88;;;23.36;73.55
40502;BME280;29631;49.168;9.848;2023-06-26T03:06:31;96554.50;;;23.19;73.57
40502;BME280;29631;49.168;9.848;2023-06-26T03:08:56;96578.31;;;23.30;73.31
40502;BME280;29631;49.168;9.848;2023-06-26T03:11:22;96574.59;;;23.26;73.70
40502;BME280;29631;49.168;9.848;2023-06-26T03:13:48;96575.44;;;23.22;73.90
40502;BME280;29631;49.168;9.848;2023-06-26T03:16:13;96572.81;;;23.17;73.86
40502;BME280;29631;49.168;9.848;2023-06-26T03:18:39;96562.63;;;23.14;73.95
40502;BME280;29631;49.168;9.848;2023-06-26T03:21:05;96579.22;;;23.21;73.61
40502;BME280;29631;49.168;9.848;2023-06-26T03:23:31;96582.72;;;23.21;74.00
40502;BME280;29631;49.168;9.848;2023-06-26T03:25:56;96579.28;;;23.16;74.04
40502;BME280;29631;49.168;9.848;2023-06-26T03:28:22;96572.34;;;23.10;73.77
40502;BME280;29631;49.168;9.848;2023-06-26T03:30:48;96579.56;;;23.14;73.91
40502;BME280;29631;49.168;9.848;2023-06-26T03:33:14;96553.88;;;22.98;73.78
40502;BME280;29631;49.168;9.848;2023-06-26T03:35:39;96550.34;;;23.03;73.77
40502;BME280;29631;49.168;9.848;2023-06-26T03:38:05;96565.34;;;23.09;74.05
40502;BME280;29631;49.168;9.848;2023-06-26T03:40:31;96573.41;;;23.14;73.87
40502;BME280;29631;49.168;9.848;2023-06-26T03:42:57;96573.94;;;23.11;74.11
40502;BME280;29631;49.168;9.848;2023-06-26T03:45:22;96578.78;;;23.14;74.02
40502;BME280;29631;49.168;9.848;2023-06-26T03:47:48;96549.84;;;22.96;73.85
40502;BME280;29631;49.168;9.848;2023-06-26T03:50:16;96579.56;;;23.14;74.39
40502;BME280;29631;49.168;9.848;2023-06-26T03:52:42;96559.75;;;23.05;74.29
40502;BME280;29631;49.168;9.848;2023-06-26T03:55:08;96581.47;;;23.14;74.36
40502;BME280;29631;49.168;9.848;2023-06-26T03:57:34;96569.19;;;23.03;74.00
40502;BME280;29631;49.168;9.848;2023-06-26T04:00:00;96566.22;;;22.99;74.46
40502;BME280;29631;49.168;9.848;2023-06-26T04:02:25;96579.94;;;23.03;74.64
40502;BME280;29631;49.168;9.848;2023-06-26T04:04:51;96584.78;;;23.06;74.39
40502;BME280;29631;49.168;9.848;2023-06-26T04:07:18;96553.44;;;22.91;74.30
40502;BME280;29631;49.168;9.848;2023-06-26T04:09:44;96598.16;;;23.11;74.91
40502;BME280;29631;49.168;9.848;2023-06-26T04:12:10;96576.19;;;23.04;74.50
40502;BME280;29631;49.168;9.848;2023-06-26T04:14:36;96581.50;;;23.09;74.77
40502;BME280;29631;49.168;9.848;2023-06-26T04:17:02;96581.03;;;23.02;74.68
40502;BME280;29631;49.168;9.848;2023-06-26T04:19:31;96572.44;;;23.00;74.63
40502;BME280;29631;49.168;9.848;2023-06-26T04:21:57;96578.31;;;23.07;74.46
40502;BME280;29631;49.168;9.848;2023-06-26T04:24:23;96594.63;;;23.15;74.65
40502;BME280;29631;49.168;9.848;2023-06-26T04:26:49;96587.09;;;23.12;74.60
40502;BME280;29631;49.168;9.848;2023-06-26T04:29:14;96586.78;;;23.19;75.00
40502;BME280;29631;49.168;9.848;2023-06-26T04:31:40;96591.59;;;23.22;75.02
40502;BME280;29631;49.168;9.848;2023-06-26T04:34:06;96570.47;;;23.10;74.92
40502;BME280;29631;49.168;9.848;2023-06-26T04:36:32;96580.31;;;23.20;74.91
40502;BME280;29631;49.168;9.848;2023-06-26T04:38:59;96575.50;;;23.17;75.20
40502;BME280;29631;49.168;9.848;2023-06-26T04:41:25;96571.66;;;23.23;75.26
40502;BME280;29631;49.168;9.848;2023-06-26T04:43:51;96569.50;;;23.25;75.27
40502;BME280;29631;49.168;9.848;2023-06-26T04:46:16;96578.09;;;23.27;74.77
40502;BME280;29631;49.168;9.848;2023-06-26T04:48:42;96567.34;;;23.27;74.71
40502;BME280;29631;49.168;9.848;2023-06-26T04:51:11;96544.06;;;23.12;75.35
40502;BME280;29631;49.168;9.848;2023-06-26T04:53:36;96578.50;;;23.39;75.31
40502;BME280;29631;49.168;9.848;2023-06-26T04:56:03;96585.97;;;23.41;75.27
40502;BME280;29631;49.168;9.848;2023-06-26T04:58:29;96584.84;;;23.47;75.49
40502;BME280;29631;49.168;9.848;2023-06-26T05:00:55;96575.44;;;23.45;75.57
40502;BME280;29631;49.168;9.848;2023-06-26T05:03:22;96563.88;;;23.44;75.18
40502;BME280;29631;49.168;9.848;2023-06-26T05:05:48;96572.91;;;23.53;75.13
40502;BME280;29631;49.168;9.848;2023-06-26T05:08:22;96583.56;;;23.63;75.53
40502;BME280;29631;49.168;9.848;2023-06-26T05:10:48;96581.84;;;23.72;74.89
40502;BME280;29631;49.168;9.848;2023-06-26T05:13:14;96600.06;;;23.80;75.64
40502;BME280;29631;49.168;9.848;2023-06-26T05:15:45;96578.91;;;23.74;75.53
40502;BME280;29631;49.168;9.848;2023-06-26T05:18:11;96578.53;;;23.80;75.16
40502;BME280;29631;49.168;9.848;2023-06-26T05:20:37;96598.56;;;23.93;75.74
40502;BME280;29631;49.168;9.848;2023-06-26T05:23:04;96581.59;;;23.92;74.82
40502;BME280;29631;49.168;9.848;2023-06-26T05:25:31;96574.03;;;23.94;74.97
40502;BME280;29631;49.168;9.848;2023-06-26T05:27:58;96590.06;;;24.04;75.13
40502;BME280;29631;49.168;9.848;2023-06-26T05:30:25;96572.34;;;23.98;75.12
40502;BME280;29631;49.168;9.848;2023-06-26T05:32:52;96588.31;;;24.13;75.14
40502;BME280;29631;49.168;9.848;2023-06-26T05:35:20;96585.31;;;24.14;74.81
40502;BME280;29631;49.168;9.848;2023-06-26T05:37:49;96578.34;;;24.14;74.47
40502;BME280;29631;49.168;9.848;2023-06-26T05:40:17;96597.78;;;24.29;75.03
40502;BME280;29631;49.168;9.848;2023-06-26T05:42:43;96597.50;;;24.30;74.95
40502;BME280;29631;49.168;9.848;2023-06-26T05:45:10;96611.63;;;24.41;75.26
40502;BME280;29631;49.168;9.848;2023-06-26T05:47:36;96592.25;;;24.39;74.68
40502;BME280;29631;49.168;9.848;2023-06-26T05:50:02;96592.69;;;24.46;74.85
40502;BME280;29631;49.168;9.848;2023-06-26T05:52:28;96605.75;;;24.57;74.62
40502;BME280;29631;49.168;9.848;2023-06-26T05:54:56;96579.34;;;24.54;74.42
40502;BME280;29631;49.168;9.848;2023-06-26T05:57:27;96601.56;;;24.65;74.22
40502;BME280;29631;49.168;9.848;2023-06-26T05:59:54;96597.19;;;24.69;74.64
40502;BME280;29631;49.168;9.848;2023-06-26T06:02:19;96530.31;;;24.34;74.75
40502;BME280;29631;49.168;9.848;2023-06-26T06:04:45;96598.63;;;24.80;74.72
40502;BME280;29631;49.168;9.848;2023-06-26T06:07:11;96587.84;;;24.80;74.87
40502;BME280;29631;49.168;9.848;2023-06-26T06:09:37;96591.16;;;24.90;74.63
40502;BME280;29631;49.168;9.848;2023-06-26T06:12:05;96592.88;;;24.99;75.09
40502;BME280;29631;49.168;9.848;2023-06-26T06:14:34;96571.88;;;24.96;74.44
40502;BME280;29631;49.168;9.848;2023-06-26T06:17:01;96599.63;;;25.15;74.82
40502;BME280;29631;49.168;9.848;2023-06-26T06:19:27;96588.75;;;25.20;74.85
40502;BME280;29631;49.168;9.848;2023-06-26T06:21:53;96586.75;;;25.26;74.88
40502;BME280;29631;49.168;9.848;2023-06-26T06:24:19;96583.16;;;25.30;75.23
40502;BME280;29631;49.168;9.848;2023-06-26T06:26:44;96588.56;;;25.44;75.23
40502;BME280;29631;49.168;9.848;2023-06-26T06:29:10;96591.56;;;25.56;75.26
40502;BME280;29631;49.168;9.848;2023-06-26T06:31:36;96588.97;;;25.64;75.44
40502;BME280;29631;49.168;9.848;2023-06-26T06:34:02;96597.41;;;25.76;75.36
40502;BME280;29631;49.168;9.848;2023-06-26T06:36:28;96591.38;;;25.79;75.71
40502;BME280;29631;49.168;9.848;2023-06-26T06:38:53;96596.59;;;25.89;75.49
40502;BME280;29631;49.168;9.848;2023-06-26T06:41:20;96581.38;;;25.93;75.67
40502;BME280;29631;49.168;9.848;2023-06-26T06:43:46;96593.56;;;26.04;74.73
40502;BME280;29631;49.168;9.848;2023-06-26T06:46:12;96594.94;;;26.15;74.87
40502;BME280;29631;49.168;9.848;2023-06-26T06:48:38;96606.53;;;26.29;74.36
40502;BME280;29631;49.168;9.848;2023-06-26T06:51:03;96591.72;;;26.26;74.53
40502;BME280;29631;49.168;9.848;2023-06-26T06:53:31;96600.91;;;26.39;74.12
40502;BME280;29631;49.168;9.848;2023-06-26T06:55:57;96605.91;;;26.45;74.31
40502;BME280;29631;49.168;9.848;2023-06-26T06:58:23;96599.28;;;26.51;74.51
40502;BME280;29631;49.168;9.848;2023-06-26T07:00:49;96612.63;;;26.69;74.71
40502;BME280;29631;49.168;9.848;2023-06-26T07:03:16;96601.00;;;26.69;74.28
40502;BME280;29631;49.168;9.848;2023-06-26T07:05:42;96605.00;;;26.71;74.33
40502;BME280;29631;49.168;9.848;2023-06-26T07:08:08;96616.94;;;26.92;74.15
40502;BME280;29631;49.168;9.848;2023-06-26T07:10:34;96605.63;;;26.90;73.98
40502;BME280;29631;49.168;9.848;2023-06-26T07:12:59;96604.28;;;27.01;73.85
40502;BME280;29631;49.168;9.848;2023-06-26T07:15:25;96604.03;;;27.11;73.91
40502;BME280;29631;49.168;9.848;2023-06-26T07:17:52;96608.38;;;27.20;73.59
40502;BME280;29631;49.168;9.848;2023-06-26T07:20:17;96592.00;;;27.25;73.72
40502;BME280;29631;49.168;9.848;2023-06-26T07:22:43;96607.03;;;27.40;73.77
40502;BME280;29631;49.168;9.848;2023-06-26T07:25:11;96605.16;;;27.49;73.40
40502;BME280;29631;49.168;9.848;2023-06-26T07:27:41;96582.19;;;27.38;73.64
40502;BME280;29631;49.168;9.848;2023-06-26T07:30:07;96603.69;;;27.65;73.45
40502;BME280;29631;49.168;9.848;2023-06-26T07:32:37;96606.09;;;27.75;72.82
40502;BME280;29631;49.168;9.848;2023-06-26T07:35:03;96606.28;;;27.78;73.01
40502;BME280;29631;49.168;9.848;2023-06-26T07:37:29;96619.09;;;27.94;73.29
40502;BME280;29631;49.168;9.848;2023-06-26T07:39:55;96613.50;;;27.99;72.98
40502;BME280;29631;49.168;9.848;2023-06-26T07:42:21;96611.63;;;28.08;73.17
40502;BME280;29631;49.168;9.848;2023-06-26T07:44:47;96620.13;;;28.24;73.18
40502;BME280;29631;49.168;9.848;2023-06-26T07:47:12;96619.19;;;28.28;72.91
40502;BME280;29631;49.168;9.848;2023-06-26T07:49:40;96624.78;;;28.40;72.74
40502;BME280;29631;49.168;9.848;2023-06-26T07:52:06;96604.34;;;28.43;73.02
40502;BME280;29631;49.168;9.848;2023-06-26T07:54:32;96608.00;;;28.55;72.83
40502;BME280;29631;49.168;9.848;2023-06-26T07:57:02;96614.75;;;28.66;72.60
40502;BME280;29631;49.168;9.848;2023-06-26T07:59:29;96607.38;;;28.75;72.45
40502;BME280;29631;49.168;9.848;2023-06-26T08:01:57;96602.28;;;28.82;72.55
40502;BME280;29631;49.168;9.848;2023-06-26T08:04:25;96617.13;;;29.01;72.17
40502;BME280;29631;49.168;9.848;2023-06-26T08:06:54;96621.09;;;29.12;72.34
40502;BME280;29631;49.168;9.848;2023-06-26T08:09:24;96605.44;;;29.18;72.17
40502;BME280;29631;49.168;9.848;2023-06-26T08:11:50;96588.47;;;29.21;72.23
40502;BME280;29631;49.168;9.848;2023-06-26T08:14:17;96606.19;;;29.43;71.62
40502;BME280;29631;49.168;9.848;2023-06-26T08:16:43;96597.38;;;29.46;71.30
40502;BME280;29631;49.168;9.848;2023-06-26T08:19:11;96601.81;;;29.59;71.58
40502;BME280;29631;49.168;9.848;2023-06-26T08:21:37;96603.69;;;29.67;71.07
40502;BME280;29631;49.168;9.848;2023-06-26T08:24:02;96592.31;;;29.74;71.09
40502;BME280;29631;49.168;9.848;2023-06-26T08:26:28;96602.97;;;29.87;71.38
40502;BME280;29631;49.168;9.848;2023-06-26T08:28:54;96594.63;;;29.92;70.52
40502;BME280;29631;49.168;9.848;2023-06-26T08:31:20;96593.31;;;29.98;70.92
40502;BME280;29631;49.168;9.848;2023-06-26T08:33:46;96596.13;;;30.10;70.14
40502;BME280;29631;49.168;9.848;2023-06-26T08:36:12;96601.19;;;30.20;70.54
40502;BME280;29631;49.168;9.848;2023-06-26T08:38:38;96563.19;;;30.03;70.59
40502;BME280;29631;49.168;9.848;2023-06-26T08:41:07;96601.53;;;30.39;69.93
40502;BME280;29631;49.168;9.848;2023-06-26T08:43:35;96595.91;;;30.44;70.48
40502;BME280;29631;49.168;9.848;2023-06-26T08:46:02;96584.22;;;30.43;70.14
40502;BME280;29631;49.168;9.848;2023-06-26T08:48:31;96593.09;;;30.61;69.53
40502;BME280;29631;49.168;9.848;2023-06-26T08:51:01;96576.84;;;30.64;69.68
40502;BME280;29631;49.168;9.848;2023-06-26T08:54:00;96595.91;;;30.85;70.14
40502;BME280;29631;49.168;9.848;2023-06-26T08:56:35;96593.22;;;30.96;69.63
40502;BME280;29631;49.168;9.848;2023-06-26T08:59:01;96591.25;;;31.05;69.63
40502;BME280;29631;49.168;9.848;2023-06-26T09:01:27;96561.88;;;30.91;68.89
40502;BME280;29631;49.168;9.848;2023-06-26T09:03:53;96589.00;;;31.19;68.99
40502;BME280;29631;49.168;9.848;2023-06-26T09:06:19;96604.38;;;31.36;69.07
40502;BME280;29631;49.168;9.848;2023-06-26T09:08:45;96597.38;;;31.47;68.58
40502;BME280;29631;49.168;9.848;2023-06-26T09:11:11;96597.78;;;31.57;69.22
40502;BME280;29631;49.168;9.848;2023-06-26T09:13:37;96601.63;;;31.68;68.98
40502;BME280;29631;49.168;9.848;2023-06-26T09:16:07;96592.44;;;31.72;68.77
40502;BME280;29631;49.168;9.848;2023-06-26T09:18:33;96580.06;;;31.75;68.72
40502;BME280;29631;49.168;9.848;2023-06-26T09:20:59;96592.22;;;31.89;68.40
40502;BME280;29631;49.168;9.848;2023-06-26T09:23:26;96605.06;;;32.01;67.98
40502;BME280;29631;49.168;9.848;2023-06-26T09:25:52;96586.63;;;31.98;67.88
40502;BME280;29631;49.168;9.848;2023-06-26T09:28:18;96590.06;;;32.07;68.32
40502;BME280;29631;49.168;9.848;2023-06-26T09:30:45;96579.72;;;32.12;68.62
40502;BME280;29631;49.168;9.848;2023-06-26T09:33:19;96593.47;;;32.28;67.82
40502;BME280;29631;49.168;9.848;2023-06-26T09:35:47;96585.72;;;32.30;67.48
40502;BME280;29631;49.168;9.848;2023-06-26T09:38:14;96585.50;;;32.35;67.94
40502;BME280;29631;49.168;9.848;2023-06-26T09:40:40;96580.81;;;32.35;67.68
40502;BME280;29631;49.168;9.848;2023-06-26T09:43:09;96579.66;;;32.48;66.70
40502;BME280;29631;49.168;9.848;2023-06-26T09:45:36;96578.84;;;32.59;67.27
40502;BME280;29631;49.168;9.848;2023-06-26T09:48:03;96576.34;;;32.66;66.98
40502;BME280;29631;49.168;9.848;2023-06-26T09:50:29;96572.63;;;32.74;67.23
40502;BME280;29631;49.168;9.848;2023-06-26T09:52:56;96578.97;;;32.90;66.80
40502;BME280;29631;49.168;9.848;2023-06-26T09:55:21;96557.44;;;32.89;67.01
40502;BME280;29631;49.168;9.848;2023-06-26T09:57:49;96555.69;;;32.96;66.70
40502;BME280;29631;49.168;9.848;2023-06-26T10:00:16;96573.66;;;33.09;66.31
40502;BME280;29631;49.168;9.848;2023-06-26T10:02:42;96573.13;;;33.19;66.17
40502;BME280;29631;49.168;9.848;2023-06-26T10:05:08;96576.50;;;33.28;66.37
40502;BME280;29631;49.168;9.848;2023-06-26T10:07:35;96571.50;;;33.30;66.32
40502;BME280;29631;49.168;9.848;2023-06-26T10:10:02;96543.69;;;33.28;66.51
40502;BME280;29631;49.168;9.848;2023-06-26T10:12:30;96566.13;;;33.49;66.03
40502;BME280;29631;49.168;9.848;2023-06-26T10:14:58;96565.53;;;33.55;66.19
40502;BME280;29631;49.168;9.848;2023-06-26T10:17:28;96573.56;;;33.64;66.20
40502;BME280;29631;49.168;9.848;2023-06-26T10:19:55;96563.34;;;33.61;66.47
40502;BME280;29631;49.168;9.848;2023-06-26T10:22:29;96570.13;;;33.82;66.30
40502;BME280;29631;49.168;9.848;2023-06-26T10:24:58;96569.50;;;33.89;65.72
40502;BME280;29631;49.168;9.848;2023-06-26T10:27:34;96577.44;;;33.94;65.46
40502;BME280;29631;49.168;9.848;2023-06-26T10:30:05;96568.50;;;33.96;65.51
40502;BME280;29631;49.168;9.848;2023-06-26T10:32:32;96588.13;;;34.14;65.76
40502;BME280;29631;49.168;9.848;2023-06-26T10:34:58;96577.53;;;34.12;65.52
40502;BME280;29631;49.168;9.848;2023-06-26T10:38:00;96573.19;;;34.11;64.94
40502;BME280;29631;49.168;9.848;2023-06-26T10:40:28;96581.78;;;34.10;65.42
40502;BME280;29631;49.168;9.848;2023-06-26T10:43:11;96592.09;;;34.16;65.52
40502;BME280;29631;49.168;9.848;2023-06-26T10:45:45;96596.13;;;34.22;65.70
40502;BME280;29631;49.168;9.848;2023-06-26T10:48:14;96593.84;;;34.24;65.01
40502;BME280;29631;49.168;9.848;2023-06-26T10:50:40;96604.97;;;34.31;65.45
40502;BME280;29631;49.168;9.848;2023-06-26T10:55:50;96580.59;;;34.26;65.25
40502;BME280;29631;49.168;9.848;2023-06-26T10:58:33;96588.53;;;34.31;65.28
40502;BME280;29631;49.168;9.848;2023-06-26T11:03:42;96582.34;;;34.34;65.74
40502;BME280;29631;49.168;9.848;2023-06-26T11:06:22;96577.72;;;34.38;65.57
40502;BME280;29631;49.168;9.848;2023-06-26T11:11:15;96590.06;;;34.63;65.56
40502;BME280;29631;49.168;9.848;2023-06-26T11:13:42;96586.59;;;34.66;65.14
40502;BME280;29631;49.168;9.848;2023-06-26T11:16:12;96579.81;;;34.60;65.33
40502;BME280;29631;49.168;9.848;2023-06-26T11:18:38;96577.66;;;34.69;64.97
40502;BME280;29631;49.168;9.848;2023-06-26T11:21:11;96589.63;;;34.80;65.11
40502;BME280;29631;49.168;9.848;2023-06-26T11:23:40;96583.56;;;34.90;65.14
40502;BME280;29631;49.168;9.848;2023-06-26T11:26:17;96582.75;;;34.89;64.96
40502;BME280;29631;49.168;9.848;2023-06-26T11:28:56;96580.16;;;34.96;65.18
40502;BME280;29631;49.168;9.848;2023-06-26T11:31:29;96575.50;;;34.97;65.09
40502;BME280;29631;49.168;9.848;2023-06-26T11:33:56;96588.78;;;35.14;65.07
40502;BME280;29631;49.168;9.848;2023-06-26T11:36:24;96573.47;;;35.13;65.16
40502;BME280;29631;49.168;9.848;2023-06-26T11:39:01;96574.03;;;35.22;65.34
40502;BME280;29631;49.168;9.848;2023-06-26T11:41:35;96582.09;;;35.34;65.31
40502;BME280;29631;49.168;9.848;2023-06-26T11:44:09;96574.31;;;35.36;65.50
40502;BME280;29631;49.168;9.848;2023-06-26T11:46:36;96582.72;;;35.46;64.84
40502;BME280;29631;49.168;9.848;2023-06-26T11:49:08;96588.44;;;35.38;64.64
40502;BME280;29631;49.168;9.848;2023-06-26T11:51:34;96574.09;;;35.25;65.09
40502;BME280;29631;49.168;9.848;2023-06-26T11:54:04;96573.25;;;35.21;65.19
40502;BME280;29631;49.168;9.848;2023-06-26T11:56:30;96583.13;;;35.26;65.12
40502;BME280;29631;49.168;9.848;2023-06-26T11:59:11;96572.88;;;35.23;65.49
40502;BME280;29631;49.168;9.848;2023-06-26T12:01:42;96574.47;;;35.24;64.68
40502;BME280;29631;49.168;9.848;2023-06-26T12:04:11;96575.31;;;35.28;64.47
40502;BME280;29631;49.168;9.848;2023-06-26T12:06:45;96580.69;;;35.21;64.38
40502;BME280;29631;49.168;9.848;2023-06-26T12:09:12;96575.56;;;35.19;64.51
40502;BME280;29631;49.168;9.848;2023-06-26T12:11:42;96585.72;;;35.19;64.91
40502;BME280;29631;49.168;9.848;2023-06-26T12:14:08;96580.97;;;35.16;65.16
40502;BME280;29631;49.168;9.848;2023-06-26T12:16:36;96580.16;;;35.15;65.34
40502;BME280;29631;49.168;9.848;2023-06-26T12:19:07;96577.78;;;35.14;65.38
40502;BME280;29631;49.168;9.848;2023-06-26T12:24:17;96582.56;;;35.17;64.44
40502;BME280;29631;49.168;9.848;2023-06-26T12:26:51;96582.97;;;35.19;64.96
40502;BME280;29631;49.168;9.848;2023-06-26T12:29:20;96597.66;;;35.26;64.71
40502;BME280;29631;49.168;9.848;2023-06-26T12:31:51;96603.13;;;35.26;65.08
40502;BME280;29631;49.168;9.848;2023-06-26T12:34:25;96579.38;;;35.15;64.89
40502;BME280;29631;49.168;9.848;2023-06-26T12:36:51;96589.66;;;35.18;65.32
40502;BME280;29631;49.168;9.848;2023-06-26T12:39:21;96584.88;;;35.15;64.98
40502;BME280;29631;49.168;9.848;2023-06-26T12:41:49;96591.97;;;35.16;65.39
40502;BME280;29631;49.168;9.848;2023-06-26T12:44:30;96576.94;;;35.10;65.34
40502;BME280;29631;49.168;9.848;2023-06-26T12:47:03;96577.31;;;35.08;65.61
40502;BME280;29631;49.168;9.848;2023-06-26T12:49:37;96573.31;;;35.06;65.97
40502;BME280;29631;49.168;9.848;2023-06-26T12:52:14;96571.75;;;35.05;66.38
40502;BME280;29631;49.168;9.848;2023-06-26T12:54:42;96570.59;;;35.06;66.14
40502;BME280;29631;49.168;9.848;2023-06-26T12:57:09;96575.00;;;35.10;66.39
40502;BME280;29631;49.168;9.848;2023-06-26T12:59:37;96562.78;;;35.08;66.04
40502;BME280;29631;49.168;9.848;2023-06-26T13:02:04;96556.47;;;35.04;65.82
40502;BME280;29631;49.168;9.848;2023-06-26T13:04:30;96561.19;;;35.07;66.20
40502;BME280;29631;49.168;9.848;2023-06-26T13:06:56;96572.25;;;35.10;66.07
40502;BME280;29631;49.168;9.848;2023-06-26T13:09:26;96548.06;;;34.97;66.94
40502;BME280;29631;49.168;9.848;2023-06-26T13:11:55;96507.25;;;34.73;66.37
40502;BME280;29631;49.168;9.848;2023-06-26T13:14:21;96542.97;;;34.99;66.27
40502;BME280;29631;49.168;9.848;2023-06-26T13:16:47;96569.03;;;35.05;66.71